Time;durP1;ratioP1;P1;durP2;ratioP2;P2;SDS_P1;SDS_P2;PMS_P1;PMS_P2;Temp;Humidity;BMP_temperature;BMP_pressure;BME280_temperature;BME280_humidity;BME280_pressure;Samples;Min_cycle;Max_cycle;Signal;HPM_P1;HPM_P2
2022/11/02 00:00:53;;;;;;;2.10;1.00;;;;;;;19.22;57.07;101267.97;5103149;28;20603;-59
2022/11/02 00:03:18;;;;;;;2.42;0.82;;;;;;;19.21;57.17;101268.97;5103371;28;20028;-60
2022/11/02 00:05:43;;;;;;;2.85;0.90;;;;;;;19.21;57.41;101268.97;5104162;28;20072;-59
2022/11/02 00:08:09;;;;;;;1.90;1.20;;;;;;;19.20;57.47;101265.44;5104400;28;20032;-59
2022/11/02 00:10:34;;;;;;;3.58;1.10;;;;;;;19.21;57.16;101266.28;5104264;28;20046;-59
2022/11/02 00:12:59;;;;;;;2.85;1.10;;;;;;;19.07;57.06;101237.22;5107093;28;20023;-59
2022/11/02 00:15:26;;;;;;;1.70;0.70;;;;;;;19.17;57.62;101252.28;5124639;28;20035;-59
2022/11/02 00:18:00;;;;;;;1.05;0.80;;;;;;;19.19;57.48;101255.66;5124693;28;20019;-59
2022/11/02 00:20:25;;;;;;;2.17;0.90;;;;;;;19.13;57.07;101250.09;5124434;28;20045;-60
2022/11/02 00:22:52;;;;;;;2.28;1.02;;;;;;;19.19;57.34;101262.91;5122291;28;20024;-60
2022/11/02 00:25:19;;;;;;;1.52;1.00;;;;;;;19.18;57.50;101264.75;5124547;28;20032;-60
2022/11/02 00:27:45;;;;;;;2.50;1.13;;;;;;;19.16;57.50;101253.31;5122690;28;20053;-60
2022/11/02 00:30:10;;;;;;;3.33;0.98;;;;;;;19.17;57.51;101260.38;5124471;28;20031;-60
2022/11/02 00:32:35;;;;;;;0.95;0.77;;;;;;;19.17;57.31;101254.13;5124585;28;20015;-59
2022/11/02 00:35:01;;;;;;;3.30;1.42;;;;;;;19.17;57.38;101248.75;5123970;28;20020;-59
2022/11/02 00:37:26;;;;;;;2.88;1.27;;;;;;;19.17;57.64;101251.44;5124520;28;20607;-60
2022/11/02 00:39:51;;;;;;;1.73;1.35;;;;;;;19.15;57.58;101251.59;5124319;28;20023;-60
2022/11/02 00:42:16;;;;;;;1.98;0.80;;;;;;;19.14;57.40;101249.06;5124055;28;20091;-60
2022/11/02 00:44:42;;;;;;;1.98;0.82;;;;;;;19.16;57.21;101249.75;5124116;28;20023;-60
2022/11/02 00:47:07;;;;;;;1.73;1.02;;;;;;;19.15;57.29;101251.59;5124304;28;20027;-59
2022/11/02 00:49:32;;;;;;;2.13;0.90;;;;;;;19.15;57.04;101253.44;5124021;28;20034;-59
2022/11/02 00:51:57;;;;;;;1.85;0.88;;;;;;;19.14;57.42;101243.69;5124354;28;20677;-59
2022/11/02 00:54:23;;;;;;;1.55;0.70;;;;;;;19.10;57.67;101226.13;5103924;28;20064;-60
2022/11/02 00:56:48;;;;;;;3.00;0.82;;;;;;;19.13;57.53;101240.13;5103520;28;20024;-59
2022/11/02 00:59:14;;;;;;;1.60;0.90;;;;;;;19.13;57.42;101237.44;5110734;28;20047;-59
2022/11/02 01:01:39;;;;;;;2.65;0.90;;;;;;;19.13;57.36;101239.31;5123862;28;20135;-60
2022/11/02 01:04:04;;;;;;;2.58;0.80;;;;;;;19.11;57.16;101247.53;5123915;28;20114;-59
2022/11/02 01:06:30;;;;;;;2.45;1.20;;;;;;;19.13;57.34;101252.78;5124274;28;20027;-60
2022/11/02 01:08:55;;;;;;;0.90;0.70;;;;;;;19.12;57.28;101257.31;5123623;28;20102;-60
2022/11/02 01:11:22;;;;;;;2.28;0.90;;;;;;;19.13;57.48;101252.78;5123920;28;20023;-59
2022/11/02 01:13:49;;;;;;;4.63;1.00;;;;;;;19.12;57.54;101261.88;5123958;28;20015;-59
2022/11/02 01:16:14;;;;;;;1.75;0.88;;;;;;;19.11;57.54;101265.56;5124257;28;20043;-59
2022/11/02 01:18:40;;;;;;;2.42;1.02;;;;;;;19.10;57.20;101258.47;5123659;28;20019;-59
2022/11/02 01:21:06;;;;;;;1.77;0.80;;;;;;;19.11;57.10;101261.00;5124078;28;20019;-59
2022/11/02 01:23:33;;;;;;;2.45;0.93;;;;;;;19.10;57.15;101264.72;5116486;28;20028;-58
2022/11/02 01:26:02;;;;;;;4.45;1.33;;;;;;;19.10;57.24;101264.72;5103907;28;20030;-59
2022/11/02 01:28:27;;;;;;;;;;;;;;;19.11;57.42;101262.84;5103142;28;20024;-59
2022/11/02 01:30:53;;;;;;;1.50;0.85;;;;;;;18.90;57.23;101228.22;5103441;28;19915;-60
2022/11/02 01:33:18;;;;;;;2.05;1.13;;;;;;;19.08;57.26;101250.56;5103624;28;20023;-59
2022/11/02 01:35:43;;;;;;;1.45;0.80;;;;;;;19.08;57.38;101258.66;5103298;28;20280;-59
2022/11/02 01:38:08;;;;;;;1.63;0.90;;;;;;;19.07;57.45;101256.09;5103368;28;20020;-59
2022/11/02 01:40:35;;;;;;;3.60;1.00;;;;;;;19.05;57.41;101253.56;5103173;28;20024;-59
2022/11/02 01:43:17;;;;;;;2.15;1.00;;;;;;;19.06;57.46;101255.25;5104702;28;20016;-59
2022/11/02 01:45:43;;;;;;;3.00;1.02;;;;;;;19.06;56.97;101257.94;5103521;28;20092;-60
2022/11/02 01:48:08;;;;;;;1.85;1.00;;;;;;;19.07;57.20;101248.00;5105115;28;20020;-60
2022/11/02 01:50:33;;;;;;;1.73;0.80;;;;;;;19.06;57.12;101281.38;5107089;28;20058;-59
2022/11/02 01:52:58;;;;;;;2.83;0.90;;;;;;;19.00;57.28;101296.34;5105582;28;20624;-59
2022/11/02 01:55:28;;;;;;;3.67;1.10;;;;;;;19.05;57.33;101310.16;5105847;28;20454;-58
2022/11/02 01:57:57;;;;;;;2.67;0.95;;;;;;;18.93;57.52;101296.13;5106473;28;20054;-57
2022/11/02 02:00:22;;;;;;;3.63;1.20;;;;;;;19.03;57.25;101301.41;5105499;28;20040;-58
2022/11/02 02:02:54;;;;;;;1.83;1.00;;;;;;;19.05;57.35;101306.63;5106880;28;20042;-57
2022/11/02 02:05:21;;;;;;;2.15;1.00;;;;;;;19.05;57.34;101303.94;5105405;28;20052;-58
2022/11/02 02:07:48;;;;;;;2.83;1.10;;;;;;;19.05;57.24;101306.63;5121348;28;20024;-58
2022/11/02 02:10:13;;;;;;;2.05;0.95;;;;;;;19.04;56.96;101302.25;5126087;28;20044;-58
2022/11/02 02:12:40;;;;;;;1.90;1.10;;;;;;;19.04;57.12;101302.25;5125649;28;20044;-59
2022/11/02 02:15:05;;;;;;;3.13;1.05;;;;;;;19.03;57.02;101306.81;5106460;28;20032;-58
2022/11/02 02:17:41;;;;;;;2.10;0.82;;;;;;;18.97;57.17;101291.25;5106645;28;20053;-59
2022/11/02 02:20:19;;;;;;;1.50;0.90;;;;;;;19.02;56.89;101294.31;5105138;28;20024;-58
2022/11/02 02:23:06;;;;;;;1.77;1.17;;;;;;;19.01;57.34;101308.78;5105392;28;20032;-59
2022/11/02 02:25:51;;;;;;;3.15;1.23;;;;;;;18.97;57.19;101286.72;5106556;28;20028;-58
2022/11/02 02:29:02;;;;;;;5.18;1.40;;;;;;;19.01;57.21;101299.88;5104584;28;20024;-58
2022/11/02 02:31:42;;;;;;;1.33;1.05;;;;;;;18.99;56.88;101281.19;5046656;28;20045;-59
2022/11/02 02:34:14;;;;;;;3.20;1.08;;;;;;;18.98;57.23;101285.69;5063222;28;20087;-59
2022/11/02 02:36:47;;;;;;;2.75;0.93;;;;;;;18.98;57.19;101279.47;5046750;28;20098;-59
2022/11/02 02:39:22;;;;;;;2.17;1.08;;;;;;;18.96;56.83;101276.94;5063158;28;20063;-59
2022/11/02 02:41:56;;;;;;;1.88;0.80;;;;;;;18.96;57.12;101289.56;5046109;28;20041;-59
2022/11/02 02:44:22;;;;;;;1.88;1.00;;;;;;;18.93;56.87;101269.16;5062909;28;20809;-59
2022/11/02 02:46:59;;;;;;;1.73;1.00;;;;;;;18.95;56.99;101280.66;5046369;28;20041;-59
2022/11/02 02:49:36;;;;;;;2.83;0.82;;;;;;;18.95;56.86;101275.25;5062718;28;20033;-59
2022/11/02 02:52:02;;;;;;;1.83;0.70;;;;;;;18.96;57.08;101281.50;5063356;28;20534;-58
2022/11/02 02:54:34;;;;;;;2.55;1.10;;;;;;;18.93;56.77;101277.25;5062755;28;20067;-59
2022/11/02 02:57:05;;;;;;;1.80;0.88;;;;;;;18.94;56.92;101288.88;5062800;28;20043;-59
2022/11/02 02:59:41;;;;;;;1.90;0.80;;;;;;;18.93;57.21;101279.94;5062394;28;20067;-59
2022/11/02 03:02:13;;;;;;;2.45;0.90;;;;;;;18.94;56.79;101286.19;5062706;28;20076;-59
2022/11/02 03:04:39;;;;;;;1.40;0.88;;;;;;;18.78;56.96;101262.69;5062426;28;20167;-59
2022/11/02 03:07:04;;;;;;;2.42;0.88;;;;;;;18.93;57.03;101287.19;5094241;28;20044;-58
2022/11/02 03:09:55;;;;;;;2.33;1.25;;;;;;;18.93;57.06;101293.41;5105404;28;20035;-58
2022/11/02 03:12:23;;;;;;;1.13;0.65;;;;;;;18.92;56.63;101293.59;5088707;28;20035;-58
2022/11/02 03:14:56;;;;;;;3.22;1.00;;;;;;;18.92;56.87;101296.28;5123561;28;20034;-58
2022/11/02 03:17:48;;;;;;;2.92;1.10;;;;;;;18.91;56.78;101297.28;5124802;28;20027;-59
2022/11/02 03:20:41;;;;;;;0.95;0.65;;;;;;;18.91;56.72;101291.91;5125545;28;20038;-58
2022/11/02 03:23:21;;;;;;;3.33;1.10;;;;;;;18.89;57.06;101291.22;5125586;28;20023;-58
2022/11/02 03:25:59;;;;;;;1.63;0.80;;;;;;;18.67;56.95;101261.06;5125804;28;20088;-58
2022/11/02 03:28:59;;;;;;;2.22;0.80;;;;;;;18.89;57.04;101296.59;5106697;28;20027;-59
2022/11/02 03:32:02;;;;;;;1.75;0.80;;;;;;;18.88;57.11;101293.06;5125291;28;20031;-58
2022/11/02 03:34:42;;;;;;;2.17;0.80;;;;;;;18.87;56.78;101283.28;5071727;28;20043;-58
2022/11/02 03:37:30;;;;;;;1.98;0.90;;;;;;;18.87;57.10;101286.00;5125512;28;20079;-59
2022/11/02 03:40:05;;;;;;;1.25;0.75;;;;;;;18.85;56.63;101284.44;5124177;28;20107;-57
2022/11/02 03:42:31;;;;;;;1.73;0.80;;;;;;;18.86;56.82;101289.69;5110878;28;20115;-58
2022/11/02 03:45:01;;;;;;;1.90;0.80;;;;;;;18.84;56.80;101278.22;5104816;28;20031;-58
2022/11/02 03:47:29;;;;;;;2.60;1.08;;;;;;;18.80;56.71;101279.53;5104773;28;20028;-58
2022/11/02 03:49:56;;;;;;;1.63;0.77;;;;;;;18.83;56.64;101279.22;5104650;28;20031;-59
2022/11/02 03:52:24;;;;;;;1.15;0.80;;;;;;;18.80;57.19;101276.84;5104830;28;20032;-58
2022/11/02 03:54:59;;;;;;;2.15;0.80;;;;;;;18.84;56.92;101294.38;5103452;28;20028;-59
2022/11/02 03:57:31;;;;;;;1.17;0.75;;;;;;;18.81;56.89;101289.31;5102856;28;20035;-58
2022/11/02 04:00:17;;;;;;;1.48;0.93;;;;;;;18.84;56.84;101301.63;5103366;28;20035;-59
2022/11/02 04:02:48;;;;;;;2.58;1.00;;;;;;;18.83;56.97;101302.63;5103330;28;20032;-58
2022/11/02 04:05:13;;;;;;;2.08;0.85;;;;;;;18.82;57.14;101301.78;5102880;28;20028;-58
2022/11/02 04:10:25;;;;;;;2.63;0.90;;;;;;;18.80;56.82;101302.94;5123287;28;20019;-58
2022/11/02 04:15:34;;;;;;;1.40;0.70;;;;;;;18.81;57.08;101300.06;5124517;28;20444;-58
2022/11/02 04:20:49;;;;;;;1.58;0.70;;;;;;;18.79;57.04;101307.47;5124564;28;20030;-59
2022/11/02 04:25:58;;;;;;;2.72;0.90;;;;;;;18.72;56.63;101304.56;5124657;28;20073;-58
2022/11/02 04:28:23;;;;;;;1.35;0.77;;;;;;;18.75;57.10;101314.19;5124158;28;20524;-58
2022/11/02 04:30:49;;;;;;;1.30;0.70;;;;;;;18.78;57.01;101327.34;5124544;28;20023;-58
2022/11/02 04:33:32;;;;;;;1.48;0.90;;;;;;;18.76;57.12;101334.72;5108547;28;20063;-58
2022/11/02 04:36:05;;;;;;;1.98;0.90;;;;;;;18.77;56.92;101338.25;5108781;28;20024;-58
2022/11/02 04:38:39;;;;;;;1.23;0.90;;;;;;;18.59;56.70;101308.66;5113629;28;20507;-58
2022/11/02 04:43:52;;;;;;;1.83;0.73;;;;;;;18.52;56.97;101299.50;5120991;28;20059;-58
2022/11/02 04:46:18;;;;;;;1.50;0.98;;;;;;;18.63;56.79;101329.72;5113660;28;20107;-59
2022/11/02 04:48:43;;;;;;;3.58;1.20;;;;;;;18.69;57.01;101350.69;5119389;28;20039;-59
2022/11/02 04:51:09;;;;;;;1.30;0.82;;;;;;;18.75;57.12;101365.38;5116525;28;20020;-56
2022/11/02 04:53:34;;;;;;;1.90;0.85;;;;;;;18.75;57.02;101369.91;5115360;28;20028;-58
2022/11/02 04:55:59;;;;;;;2.05;0.90;;;;;;;18.65;56.87;101356.50;5109646;28;20023;-58
2022/11/02 04:58:25;;;;;;;2.05;0.85;;;;;;;18.74;56.80;101377.16;5111473;28;20050;-59
2022/11/02 05:00:50;;;;;;;1.35;0.80;;;;;;;18.74;56.95;101385.25;5117325;28;20058;-57
2022/11/02 05:03:15;;;;;;;2.42;0.93;;;;;;;18.71;57.06;101386.38;5112910;28;20026;-58
2022/11/02 05:05:40;;;;;;;2.53;1.10;;;;;;;18.73;56.76;101388.91;5108211;28;20028;-57
2022/11/02 05:08:06;;;;;;;1.45;0.80;;;;;;;18.72;56.64;101398.00;5110246;28;20015;-59
2022/11/02 05:10:31;;;;;;;1.02;0.82;;;;;;;18.72;56.91;101389.91;5110921;28;20027;-58
2022/11/02 05:12:57;;;;;;;1.65;0.85;;;;;;;18.72;56.95;101395.31;5109429;28;20089;-58
2022/11/02 05:15:22;;;;;;;1.80;0.90;;;;;;;18.71;56.79;101388.22;5112381;28;20032;-58
2022/11/02 05:17:48;;;;;;;2.72;0.95;;;;;;;18.71;56.67;101396.31;5104666;28;20057;-57
2022/11/02 05:20:13;;;;;;;0.75;0.63;;;;;;;18.70;56.83;101386.56;5114484;28;20055;-59
2022/11/02 05:22:41;;;;;;;1.88;1.00;;;;;;;18.70;56.65;101402.72;5110114;28;20615;-57
2022/11/02 05:25:08;;;;;;;0.80;0.80;;;;;;;18.69;56.66;101396.47;5111463;27;20027;-58
2022/11/02 05:27:33;;;;;;;1.15;0.60;;;;;;;18.71;56.63;101410.63;5108075;28;20134;-58
2022/11/02 05:29:59;;;;;;;2.13;0.90;;;;;;;18.69;56.92;101407.25;5112242;28;20479;-58
2022/11/02 05:32:25;;;;;;;2.92;1.52;;;;;;;18.71;56.86;101415.16;5106656;28;20508;-58
2022/11/02 05:34:51;;;;;;;1.98;1.23;;;;;;;18.70;56.77;101416.19;5106512;28;20075;-58
2022/11/02 05:37:16;;;;;;;1.88;0.98;;;;;;;18.69;56.85;101420.72;5107379;28;20024;-58
2022/11/02 05:39:41;;;;;;;1.98;0.90;;;;;;;18.69;56.91;101409.94;5111619;28;20023;-58
2022/11/02 05:42:06;;;;;;;1.23;0.73;;;;;;;18.70;56.61;101429.66;5119606;28;20024;-58
2022/11/02 05:44:32;;;;;;;2.03;1.00;;;;;;;18.70;57.01;101426.94;5115599;28;20028;-59
2022/11/02 05:46:57;;;;;;;3.72;1.05;;;;;;;18.70;56.56;101435.03;5113352;28;20019;-58
2022/11/02 05:49:22;;;;;;;2.00;0.90;;;;;;;18.70;56.59;101437.72;5112042;28;20032;-58
2022/11/02 05:51:48;;;;;;;1.75;1.05;;;;;;;18.71;56.90;101447.50;5106824;28;20031;-58
2022/11/02 05:54:13;;;;;;;1.00;0.70;;;;;;;18.70;56.77;101443.97;5106727;28;20031;-58
2022/11/02 05:56:38;;;;;;;2.42;0.98;;;;;;;18.71;56.67;101439.41;5113551;28;20423;-58
2022/11/02 05:59:04;;;;;;;1.15;0.80;;;;;;;18.71;56.70;101437.56;5114461;28;20054;-59
2022/11/02 06:01:29;;;;;;;2.13;1.10;;;;;;;18.72;56.53;101443.78;5114176;28;20040;-59
2022/11/02 06:03:54;;;;;;;1.60;0.77;;;;;;;18.72;56.89;101450.03;5108440;28;20016;-59
2022/11/02 06:06:20;;;;;;;2.78;1.33;;;;;;;18.68;56.93;101447.75;5106766;28;20028;-58
2022/11/02 06:08:45;;;;;;;2.58;1.00;;;;;;;18.73;56.80;101465.22;5105279;28;20029;-58
2022/11/02 06:11:12;;;;;;;3.78;1.23;;;;;;;18.72;56.63;101474.25;5106369;28;20040;-59
2022/11/02 06:13:38;;;;;;;3.25;1.23;;;;;;;18.72;56.79;101474.25;5108591;28;20035;-58
2022/11/02 06:16:05;;;;;;;4.82;1.48;;;;;;;18.63;56.74;101460.84;5107522;28;20028;-58
2022/11/02 06:18:30;;;;;;;1.63;1.20;;;;;;;18.72;56.88;101482.34;5108312;28;20031;-58
2022/11/02 06:20:58;;;;;;;3.25;1.05;;;;;;;18.60;56.92;101467.38;5109702;28;20020;-59
2022/11/02 06:23:24;;;;;;;5.18;1.23;;;;;;;18.69;56.92;101490.75;5116462;28;20084;-58
2022/11/02 06:25:57;;;;;;;4.78;1.35;;;;;;;18.73;56.84;101497.53;5105443;28;20032;-58
2022/11/02 06:28:23;;;;;;;1.92;0.98;;;;;;;18.69;56.86;101495.22;5105526;28;20027;-58
2022/11/02 06:30:49;;;;;;;5.45;1.88;;;;;;;18.74;57.00;101511.84;5113573;28;20401;-58
2022/11/02 06:33:15;;;;;;;3.97;1.10;;;;;;;18.74;56.64;101514.53;5106955;28;20023;-58
2022/11/02 06:35:49;;;;;;;3.70;1.30;;;;;;;18.72;57.05;101516.53;5109838;28;20028;-58
2022/11/02 06:38:14;;;;;;;4.35;1.27;;;;;;;18.75;56.87;101523.47;5107639;28;20016;-59
2022/11/02 06:40:40;;;;;;;3.33;1.20;;;;;;;18.75;56.71;101523.47;5108203;28;20028;-60
2022/11/02 06:43:05;;;;;;;2.65;1.15;;;;;;;18.76;56.98;101525.16;5105524;28;20020;-59
2022/11/02 06:45:30;;;;;;;3.47;1.40;;;;;;;18.74;57.03;101533.41;5108212;28;20468;-59
2022/11/02 06:47:56;;;;;;;3.10;1.20;;;;;;;18.75;56.73;101545.84;5106493;28;20020;-59
2022/11/02 06:50:23;;;;;;;2.97;1.20;;;;;;;18.74;57.17;101546.88;5106349;28;20027;-59
2022/11/02 06:52:48;;;;;;;3.03;1.10;;;;;;;18.64;57.10;101537.94;5105648;28;20035;-59
2022/11/02 06:55:14;;;;;;;2.85;1.00;;;;;;;18.76;57.08;101561.00;5109198;28;20032;-59
2022/11/02 06:57:40;;;;;;;2.20;1.20;;;;;;;18.76;56.87;101563.72;5107625;28;20112;-59
2022/11/02 07:00:08;;;;;;;2.75;1.63;;;;;;;18.76;57.15;101582.56;5106483;28;20024;-58
2022/11/02 07:02:34;;;;;;;2.63;1.10;;;;;;;18.75;57.17;101578.19;5109622;28;20047;-60
2022/11/02 07:04:59;;;;;;;2.33;1.15;;;;;;;18.78;56.96;101588.66;5113332;28;20042;-59
2022/11/02 07:07:24;;;;;;;3.00;1.38;;;;;;;18.75;56.94;101591.66;5107084;28;20024;-60
2022/11/02 07:09:49;;;;;;;2.15;1.10;;;;;;;18.79;56.97;101594.91;5106292;28;20020;-60
2022/11/02 07:12:15;;;;;;;3.30;1.27;;;;;;;18.77;56.84;101592.34;5105943;28;20026;-60
2022/11/02 07:14:40;;;;;;;3.25;1.02;;;;;;;18.77;57.00;101604.97;5109754;28;20032;-60
2022/11/02 07:17:05;;;;;;;2.70;1.20;;;;;;;18.67;56.84;101597.75;5104891;28;20028;-60
2022/11/02 07:19:31;;;;;;;1.90;1.13;;;;;;;18.80;56.62;101629.75;5106811;28;20122;-60
2022/11/02 07:21:56;;;;;;;3.70;1.52;;;;;;;18.79;56.87;101625.38;5107456;28;20028;-60
2022/11/02 07:24:21;;;;;;;3.83;1.45;;;;;;;18.82;56.58;101630.47;5107700;28;20031;-60
2022/11/02 07:26:48;;;;;;;3.95;1.80;;;;;;;18.83;56.96;101642.94;5105854;28;20080;-61
2022/11/02 07:29:14;;;;;;;3.03;1.30;;;;;;;18.83;56.90;101647.47;5104801;28;20464;-60
2022/11/02 07:31:40;;;;;;;3.58;1.20;;;;;;;18.85;56.56;101658.94;5105269;28;20030;-60
2022/11/02 07:34:05;;;;;;;3.50;1.20;;;;;;;18.85;56.57;101665.16;5107228;28;20075;-60
2022/11/02 07:36:30;;;;;;;2.70;1.13;;;;;;;18.86;56.77;101672.28;5110439;28;20039;-60
2022/11/02 07:38:55;;;;;;;3.03;1.40;;;;;;;18.89;56.70;101673.81;5124894;28;20024;-59
2022/11/02 07:41:21;;;;;;;3.20;1.10;;;;;;;18.91;56.95;101677.22;5110760;28;20380;-61
2022/11/02 07:43:46;;;;;;;4.07;1.90;;;;;;;18.93;56.77;101686.00;5116483;28;20027;-60
2022/11/02 07:46:11;;;;;;;2.13;1.17;;;;;;;18.90;56.42;101680.88;5105840;28;20119;-60
2022/11/02 07:48:36;;;;;;;3.45;1.67;;;;;;;18.96;56.54;101685.69;5106976;28;20020;-59
2022/11/02 07:51:02;;;;;;;4.00;1.35;;;;;;;18.97;56.06;101690.94;5112492;28;20016;-60
2022/11/02 07:53:27;;;;;;;3.85;1.20;;;;;;;18.99;56.39;101696.19;5109338;28;20028;-60
2022/11/02 07:55:53;;;;;;;4.05;1.95;;;;;;;18.91;56.11;101688.00;5107525;28;20476;-60
2022/11/02 07:58:18;;;;;;;1.98;0.90;;;;;;;19.01;56.19;101706.81;5110773;28;20012;-60
2022/11/02 08:00:43;;;;;;;3.25;1.30;;;;;;;19.01;56.03;101710.34;5109408;28;20075;-60
2022/11/02 08:03:10;;;;;;;5.18;1.95;;;;;;;19.06;56.37;101715.28;5106767;28;20050;-58
2022/11/02 08:05:37;;;;;;;2.88;1.40;;;;;;;19.08;56.06;101724.09;5112757;28;20036;-60
2022/11/02 08:08:06;;;;;;;2.53;1.25;;;;;;;19.09;56.31;101720.38;5114925;28;20032;-60
2022/11/02 08:10:32;;;;;;;4.07;1.50;;;;;;;18.98;56.18;101708.78;5118233;28;20068;-60
2022/11/02 08:12:57;;;;;;;5.10;1.38;;;;;;;19.12;55.96;101726.31;5121068;28;20047;-60
2022/11/02 08:15:23;;;;;;;2.83;1.27;;;;;;;19.16;56.19;101721.50;5102536;28;20028;-60
2022/11/02 08:18:02;;;;;;;3.95;1.50;;;;;;;19.22;55.75;101737.03;5103578;28;20054;-61
2022/11/02 08:20:28;;;;;;;;;;;;;;;19.26;55.72;101734.91;5104287;28;20521;-60
2022/11/02 08:22:53;;;;;;;4.38;1.40;;;;;;;19.26;55.48;101733.06;5103787;28;19947;-60
2022/11/02 08:25:19;;;;;;;2.83;1.30;;;;;;;19.25;55.54;101739.44;5103972;28;20045;-60
2022/11/02 08:27:44;;;;;;;2.95;1.33;;;;;;;19.31;55.74;101743.38;5105793;28;20023;-61
2022/11/02 08:30:10;;;;;;;3.88;1.45;;;;;;;19.35;55.65;101750.16;5124131;28;20028;-60
2022/11/02 08:32:35;;;;;;;3.85;1.27;;;;;;;19.38;55.68;101758.81;5122588;28;20107;-60
2022/11/02 08:35:00;;;;;;;3.10;1.45;;;;;;;19.38;55.23;101747.19;5123606;28;20031;-60
2022/11/02 08:37:25;;;;;;;4.28;1.30;;;;;;;19.44;55.20;101751.97;5124347;28;20031;-60
2022/11/02 08:39:51;;;;;;;3.08;1.45;;;;;;;19.46;55.48;101750.81;5114197;28;20036;-60
2022/11/02 08:42:16;;;;;;;2.28;1.13;;;;;;;19.37;55.19;101731.97;5116296;28;20024;-60
2022/11/02 08:44:41;;;;;;;3.95;1.75;;;;;;;19.60;55.23;101754.00;5123578;28;20030;-61
2022/11/02 08:47:07;;;;;;;2.78;1.77;;;;;;;19.50;54.85;101743.28;5109957;28;20764;-60
2022/11/02 08:49:32;;;;;;;2.60;1.27;;;;;;;19.66;54.68;101770.44;5112708;28;20032;-60
2022/11/02 08:51:57;;;;;;;4.07;1.55;;;;;;;19.71;54.23;101780.78;5117674;28;20083;-60
2022/11/02 08:54:22;;;;;;;5.00;1.85;;;;;;;19.73;54.25;101784.16;5112198;28;20488;-60
2022/11/02 08:56:48;;;;;;;5.28;1.60;;;;;;;19.74;54.32;101780.47;5108835;28;20573;-60
2022/11/02 08:59:13;;;;;;;3.30;1.42;;;;;;;19.77;54.36;101790.13;5116760;28;20547;-60
2022/11/02 09:01:38;;;;;;;2.45;1.30;;;;;;;19.80;54.16;101793.34;5102829;28;20078;-60
2022/11/02 09:04:03;;;;;;;2.88;1.60;;;;;;;19.81;54.31;101783.41;5117664;28;20031;-60
2022/11/02 09:06:29;;;;;;;3.38;1.48;;;;;;;19.79;54.36;101786.25;5113807;28;20034;-60
2022/11/02 09:08:54;;;;;;;3.72;1.55;;;;;;;19.78;54.13;101795.34;5118125;28;20027;-60
2022/11/02 09:11:19;;;;;;;3.17;1.50;;;;;;;19.80;54.03;101785.25;5108545;28;20115;-61
2022/11/02 09:13:44;;;;;;;4.18;1.70;;;;;;;19.69;54.00;101769.28;5107243;28;20112;-60
2022/11/02 09:16:10;;;;;;;4.72;1.55;;;;;;;19.78;54.04;101787.25;5109485;28;20542;-60
2022/11/02 09:18:36;;;;;;;4.18;1.50;;;;;;;19.76;54.16;101791.97;5123587;28;20403;-60
2022/11/02 09:21:03;;;;;;;3.92;1.98;;;;;;;19.78;53.87;101799.91;5104656;28;20313;-61
2022/11/02 09:23:28;;;;;;;3.80;1.55;;;;;;;19.74;54.21;101796.66;5103451;28;20031;-60
2022/11/02 09:25:53;;;;;;;5.78;1.80;;;;;;;19.65;54.33;101789.47;5116967;28;20049;-61
2022/11/02 09:28:19;;;;;;;4.07;1.27;;;;;;;19.75;54.14;101811.00;5102384;28;20032;-61
2022/11/02 09:30:45;;;;;;;2.90;1.35;;;;;;;19.73;54.36;101813.84;5117054;28;20491;-61
2022/11/02 09:33:10;;;;;;;3.28;1.45;;;;;;;19.71;53.95;101819.41;5109405;28;20034;-60
2022/11/02 09:35:47;;;;;;;3.72;1.88;;;;;;;19.68;54.41;101818.84;5111096;28;20483;-60
2022/11/02 09:38:12;;;;;;;3.15;1.80;;;;;;;19.67;54.04;101822.56;5101454;28;20027;-60
2022/11/02 09:41:01;;;;;;;2.47;1.40;;;;;;;19.67;53.95;101836.06;5106534;28;20028;-60
2022/11/02 09:43:44;;;;;;;3.90;1.83;;;;;;;19.51;54.19;101804.31;5110339;28;20091;-60
2022/11/02 09:46:31;;;;;;;5.85;1.60;;;;;;;19.70;54.16;101844.66;5112198;28;20028;-60
2022/11/02 09:48:59;;;;;;;5.95;1.42;;;;;;;19.71;53.96;101845.53;5117939;28;20023;-60
2022/11/02 09:51:32;;;;;;;6.35;1.58;;;;;;;19.70;54.05;101841.97;5097226;28;20020;-60
2022/11/02 09:54:05;;;;;;;2.80;1.23;;;;;;;19.63;54.10;101838.19;5117821;28;20024;-60
2022/11/02 09:56:31;;;;;;;2.83;1.33;;;;;;;19.67;54.24;101850.38;5111904;28;20102;-60
2022/11/02 09:59:03;;;;;;;3.25;1.50;;;;;;;19.65;53.94;101856.91;5113728;28;20108;-60
2022/11/02 10:01:55;;;;;;;3.85;1.50;;;;;;;19.64;53.96;101853.38;5112260;28;20048;-60
2022/11/02 10:04:46;;;;;;;2.38;1.30;;;;;;;19.63;54.11;101862.47;5109520;28;20024;-60
2022/11/02 10:07:24;;;;;;;4.25;2.03;;;;;;;19.62;54.25;101862.59;5107474;28;20024;-60
2022/11/02 10:09:55;;;;;;;3.60;1.40;;;;;;;19.60;54.29;101873.53;5117192;28;20027;-60
2022/11/02 10:12:30;;;;;;;4.25;1.42;;;;;;;19.60;54.07;101880.78;5101680;28;20028;-60
2022/11/02 10:15:05;;;;;;;3.75;1.45;;;;;;;19.61;54.08;101874.41;5114806;28;20012;-60
2022/11/02 10:17:34;;;;;;;5.07;1.80;;;;;;;19.60;53.99;101873.53;5106177;28;20027;-61
2022/11/02 10:20:05;;;;;;;3.33;1.60;;;;;;;19.60;54.29;101894.25;5106018;28;20034;-60
2022/11/02 10:22:36;;;;;;;3.95;1.48;;;;;;;19.55;54.06;101881.22;5119347;28;20023;-60
2022/11/02 10:25:06;;;;;;;4.05;1.73;;;;;;;19.60;54.06;101888.88;5113857;28;20501;-60
2022/11/02 10:27:38;;;;;;;3.20;1.35;;;;;;;19.59;54.29;101895.28;5110060;28;20028;-60
2022/11/02 10:30:12;;;;;;;3.22;1.90;;;;;;;19.59;54.32;101900.66;5114250;28;20421;-60
2022/11/02 10:32:39;;;;;;;5.10;1.40;;;;;;;19.58;54.07;101894.44;5112112;28;20020;-60
2022/11/02 10:35:15;;;;;;;3.70;1.25;;;;;;;19.59;53.85;101892.56;5118269;28;20120;-58
2022/11/02 10:37:55;;;;;;;3.60;1.60;;;;;;;19.55;54.19;101892.00;5104594;28;20059;-60
2022/11/02 10:40:49;;;;;;;3.28;1.20;;;;;;;19.59;53.85;101911.47;5104810;28;20028;-60
2022/11/02 10:43:29;;;;;;;3.30;1.13;;;;;;;19.60;54.03;101899.66;5113456;28;20051;-60
2022/11/02 10:46:06;;;;;;;5.10;1.38;;;;;;;19.61;53.72;101912.19;5117242;28;20024;-61
2022/11/02 10:48:45;;;;;;;3.67;1.60;;;;;;;19.56;54.12;101907.19;5108008;28;20107;-60
2022/11/02 10:51:11;;;;;;;;;;;;;;;19.59;54.03;101911.47;5110923;28;20099;-60
2022/11/02 10:53:45;;;;;;;4.13;1.52;;;;;;;19.43;54.03;101887.81;5105015;28;19915;-60
2022/11/02 10:56:21;;;;;;;4.85;1.45;;;;;;;19.56;54.23;101907.19;5106312;28;20119;-61
2022/11/02 10:58:58;;;;;;;3.13;1.20;;;;;;;19.56;54.33;101918.00;5105497;28;20920;-60
2022/11/02 11:01:24;;;;;;;4.88;1.17;;;;;;;19.56;54.09;101930.63;5110436;28;20048;-59
2022/11/02 11:03:54;;;;;;;3.40;1.48;;;;;;;19.57;54.47;101924.22;5120961;28;20057;-60
2022/11/02 11:06:20;;;;;;;2.63;1.30;;;;;;;19.58;54.47;101931.31;5107942;28;20024;-59
2022/11/02 11:08:48;;;;;;;5.22;1.73;;;;;;;19.46;54.60;101904.56;5108394;28;20429;-59
2022/11/02 11:11:25;;;;;;;4.32;1.40;;;;;;;19.58;54.76;101937.59;5105799;28;20153;-60
2022/11/02 11:14:02;;;;;;;2.83;1.30;;;;;;;19.59;54.45;101925.78;5107532;28;20024;-60
2022/11/02 11:16:47;;;;;;;2.72;1.27;;;;;;;19.60;54.88;101929.34;5104355;28;20699;-60
2022/11/02 11:19:35;;;;;;;2.97;1.35;;;;;;;19.60;54.85;101921.25;5104724;28;20022;-59
2022/11/02 11:22:02;;;;;;;2.15;1.20;;;;;;;19.60;54.84;101932.88;5103985;28;20095;-59
2022/11/02 11:24:32;;;;;;;3.33;1.33;;;;;;;19.61;54.57;101923.81;5105390;28;20076;-59
2022/11/02 11:27:07;;;;;;;4.50;1.50;;;;;;;19.62;54.96;101924.66;5105377;28;20051;-59
2022/11/02 11:29:34;;;;;;;2.83;1.33;;;;;;;19.61;55.00;101918.41;5105201;28;20028;-59
2022/11/02 11:32:01;;;;;;;4.25;1.38;;;;;;;19.59;54.96;101906.06;5105835;28;20028;-60
2022/11/02 11:34:29;;;;;;;2.10;1.23;;;;;;;19.68;54.79;101927.63;5112261;28;20031;-60
2022/11/02 11:37:08;;;;;;;4.60;1.50;;;;;;;19.71;54.68;101924.63;5121134;28;20484;-60
2022/11/02 11:39:33;;;;;;;8.68;1.35;;;;;;;19.73;54.73;101925.31;5134813;27;20035;-60
2022/11/02 11:42:02;;;;;;;3.40;1.48;;;;;;;19.76;54.83;101936.84;5105668;28;20069;-60
2022/11/02 11:44:27;;;;;;;3.83;1.40;;;;;;;19.76;55.10;101928.75;5115197;28;20087;-61
2022/11/02 11:46:55;;;;;;;3.05;1.20;;;;;;;19.77;54.92;101933.97;5109221;28;20042;-59
2022/11/02 11:49:25;;;;;;;4.38;1.27;;;;;;;19.74;54.69;101920.78;5108690;28;20028;-59